createdAt,value
2023-08-12T00:02:01.787Z,15.81
2023-08-12T00:04:28.791Z,15.77
2023-08-12T00:06:55.733Z,15.76
2023-08-12T00:09:22.559Z,15.72
2023-08-12T00:11:49.620Z,15.74
2023-08-12T00:14:16.489Z,15.70
2023-08-12T00:16:43.502Z,15.74
2023-08-12T00:19:10.417Z,15.78
2023-08-12T00:21:37.459Z,15.79
2023-08-12T00:24:04.618Z,15.79
2023-08-12T00:26:31.553Z,15.77
2023-08-12T00:28:58.300Z,15.87
2023-08-12T00:31:25.479Z,15.90
2023-08-12T00:33:52.258Z,15.83
2023-08-12T00:36:19.340Z,15.87
2023-08-12T00:38:46.160Z,15.83
2023-08-12T00:41:13.082Z,15.86
2023-08-12T00:43:39.952Z,15.86
2023-08-12T00:46:07.004Z,15.93
2023-08-12T00:48:34.052Z,15.87
2023-08-12T00:51:01.045Z,15.92
2023-08-12T00:53:28.336Z,15.86
2023-08-12T00:55:56.189Z,15.84
2023-08-12T00:58:23.314Z,15.88
2023-08-12T01:00:51.467Z,15.86
2023-08-12T01:03:19.097Z,15.77
2023-08-12T01:05:47.582Z,15.86
2023-08-12T01:08:14.630Z,15.88
2023-08-12T01:10:48.561Z,15.82
2023-08-12T01:13:32.385Z,15.85
2023-08-12T01:16:02.054Z,15.82
2023-08-12T01:18:29.426Z,15.84
2023-08-12T01:20:57.047Z,15.77
2023-08-12T01:23:23.832Z,15.82
2023-08-12T01:25:50.713Z,15.82
2023-08-12T01:28:17.620Z,15.79
2023-08-12T01:31:16.389Z,15.78
2023-08-12T01:34:08.215Z,15.66
2023-08-12T01:36:37.989Z,15.64
2023-08-12T01:39:06.834Z,15.63
2023-08-12T01:41:33.861Z,15.47
2023-08-12T01:44:03.107Z,15.48
2023-08-12T01:46:30.505Z,15.44
2023-08-12T01:48:57.481Z,15.44
2023-08-12T01:51:24.390Z,15.37
2023-08-12T01:53:51.297Z,15.39
2023-08-12T01:56:18.208Z,15.38
2023-08-12T01:58:45.100Z,15.36
2023-08-12T02:01:12.236Z,15.43
2023-08-12T02:03:40.241Z,15.37
2023-08-12T02:06:07.515Z,15.40
2023-08-12T02:08:34.886Z,15.43
2023-08-12T02:11:01.818Z,15.42
2023-08-12T02:13:29.044Z,15.39
2023-08-12T02:15:55.900Z,15.44
2023-08-12T02:18:23.329Z,15.45
2023-08-12T02:20:50.158Z,15.44
2023-08-12T02:23:17.147Z,15.47
2023-08-12T02:25:44.036Z,15.52
2023-08-12T02:28:10.941Z,15.54
2023-08-12T02:30:37.661Z,15.47
2023-08-12T02:33:04.812Z,15.45
2023-08-12T02:35:31.869Z,15.44
2023-08-12T02:37:58.691Z,15.55
2023-08-12T02:40:25.500Z,15.60
2023-08-12T02:42:52.347Z,15.55
2023-08-12T02:45:19.245Z,15.59
2023-08-12T02:47:46.211Z,15.58
2023-08-12T02:50:12.954Z,15.58
2023-08-12T02:52:39.873Z,15.47
2023-08-12T02:55:07.032Z,15.51
2023-08-12T02:57:33.973Z,15.56
2023-08-12T03:00:00.774Z,15.55
2023-08-12T03:02:27.709Z,15.58
2023-08-12T03:04:55.469Z,15.58
2023-08-12T03:07:22.332Z,15.61
2023-08-12T03:09:49.232Z,15.63
2023-08-12T03:12:16.110Z,15.59
2023-08-12T03:14:42.885Z,15.59
2023-08-12T03:17:11.129Z,15.60
2023-08-12T03:19:38.315Z,15.60
2023-08-12T03:22:06.127Z,15.64
2023-08-12T03:24:33.565Z,15.75
2023-08-12T03:27:01.041Z,15.80
2023-08-12T03:29:28.045Z,15.93
2023-08-12T03:31:55.021Z,15.99
2023-08-12T03:34:23.219Z,16.14
2023-08-12T03:36:51.424Z,16.34
2023-08-12T03:39:19.775Z,16.63
2023-08-12T03:41:47.464Z,16.85
2023-08-12T03:44:15.236Z,17.27
2023-08-12T03:46:42.196Z,17.57
2023-08-12T03:49:09.624Z,17.98
2023-08-12T03:51:36.639Z,18.21
2023-08-12T03:54:03.577Z,18.50
2023-08-12T03:56:30.888Z,18.74
2023-08-12T03:58:59.091Z,18.88
2023-08-12T04:01:25.992Z,19.15
2023-08-12T04:03:52.899Z,19.31
2023-08-12T04:06:19.920Z,19.54
2023-08-12T04:08:46.827Z,19.81
2023-08-12T04:11:13.639Z,20.09
2023-08-12T04:13:41.475Z,20.34
2023-08-12T04:16:08.362Z,20.50
2023-08-12T04:18:35.112Z,20.81
2023-08-12T04:21:02.597Z,21.00
2023-08-12T04:23:29.532Z,21.36
2023-08-12T04:25:57.560Z,21.63
2023-08-12T04:28:27.433Z,21.83
2023-08-12T04:30:54.377Z,22.15
2023-08-12T04:33:23.898Z,22.45
2023-08-12T04:35:51.340Z,22.71
2023-08-12T04:38:19.405Z,22.97
2023-08-12T04:40:48.331Z,23.17
2023-08-12T04:43:15.463Z,23.43
2023-08-12T04:45:47.046Z,23.73
2023-08-12T04:48:14.669Z,24.00
2023-08-12T04:50:43.697Z,24.20
2023-08-12T04:53:10.723Z,24.57
2023-08-12T04:55:37.644Z,24.82
2023-08-12T04:58:05.776Z,24.99
2023-08-12T05:00:33.669Z,25.15
2023-08-12T05:03:00.759Z,25.36
2023-08-12T05:05:28.250Z,25.51
2023-08-12T05:07:55.365Z,25.75
2023-08-12T05:10:22.991Z,25.96
2023-08-12T05:12:53.403Z,25.98
2023-08-12T05:15:20.443Z,26.02
2023-08-12T05:17:48.373Z,26.03
2023-08-12T05:20:18.933Z,26.08
2023-08-12T05:22:45.741Z,26.25
2023-08-12T05:25:12.632Z,26.40
2023-08-12T05:27:39.933Z,26.59
2023-08-12T05:30:07.530Z,26.89
2023-08-12T05:32:34.387Z,27.28
2023-08-12T05:35:01.503Z,27.44
2023-08-12T05:37:28.345Z,27.73
2023-08-12T05:39:55.237Z,27.85
2023-08-12T05:42:22.084Z,28.01
2023-08-12T05:44:48.869Z,28.18
2023-08-12T05:47:15.828Z,28.21
2023-08-12T05:49:43.603Z,28.15
2023-08-12T05:52:10.895Z,27.90
2023-08-12T05:54:38.387Z,27.90
2023-08-12T05:57:05.534Z,27.59
2023-08-12T05:59:32.396Z,27.30
2023-08-12T06:01:59.141Z,27.15
2023-08-12T06:04:26.121Z,26.91
2023-08-12T06:06:52.917Z,26.64
2023-08-12T06:09:19.820Z,26.10
2023-08-12T06:11:46.676Z,26.00
2023-08-12T06:14:13.543Z,25.96
2023-08-12T06:16:40.545Z,25.91
2023-08-12T06:19:07.482Z,25.87
2023-08-12T06:21:34.279Z,25.58
2023-08-12T06:24:01.041Z,25.47
2023-08-12T06:26:27.862Z,25.39
2023-08-12T06:28:54.724Z,25.53
2023-08-12T06:31:21.528Z,25.68
2023-08-12T06:33:48.390Z,25.90
2023-08-12T06:36:15.241Z,26.09
2023-08-12T06:38:42.045Z,26.44
2023-08-12T06:41:08.817Z,27.27
2023-08-12T06:43:36.426Z,27.96
2023-08-12T06:46:03.853Z,28.68
2023-08-12T06:48:30.780Z,29.50
2023-08-12T06:50:57.828Z,30.14
2023-08-12T06:53:26.202Z,30.92
2023-08-12T06:55:53.028Z,31.66
2023-08-12T06:58:19.884Z,31.88
2023-08-12T07:00:46.708Z,32.20
2023-08-12T07:03:13.671Z,32.33
2023-08-12T07:05:40.624Z,32.43
2023-08-12T07:08:07.519Z,32.41
2023-08-12T07:10:34.329Z,32.18
2023-08-12T07:13:01.197Z,32.15
2023-08-12T07:15:28.026Z,31.84
2023-08-12T07:17:54.931Z,31.52
2023-08-12T07:20:21.751Z,31.20
2023-08-12T07:22:48.598Z,31.56
2023-08-12T07:25:15.552Z,32.13
2023-08-12T07:27:42.429Z,32.72
2023-08-12T07:30:10.329Z,33.53
2023-08-12T07:32:39.048Z,33.77
2023-08-12T07:35:06.998Z,33.52
2023-08-12T07:37:34.050Z,33.40
2023-08-12T07:40:01.075Z,33.28
2023-08-12T07:42:27.954Z,33.18
2023-08-12T07:44:54.815Z,33.03
2023-08-12T07:47:21.784Z,32.83
2023-08-12T07:49:48.673Z,32.45
2023-08-12T07:52:15.497Z,32.19
2023-08-12T07:54:42.604Z,32.09
2023-08-12T07:57:09.407Z,32.04
2023-08-12T07:59:36.228Z,32.02
2023-08-12T08:02:03.164Z,31.91
2023-08-12T08:04:30.144Z,31.64
2023-08-12T08:06:57.023Z,31.39
2023-08-12T08:09:23.862Z,31.15
2023-08-12T08:11:50.859Z,31.12
2023-08-12T08:14:17.695Z,30.84
2023-08-12T08:16:44.582Z,30.77
2023-08-12T08:19:13.327Z,30.82
2023-08-12T08:21:41.128Z,31.14
2023-08-12T08:24:09.549Z,31.46
2023-08-12T08:26:36.441Z,31.79
2023-08-12T08:29:03.302Z,32.08
2023-08-12T08:31:30.125Z,32.34
2023-08-12T08:33:56.984Z,32.22
2023-08-12T08:36:24.218Z,32.43
2023-08-12T08:38:51.107Z,32.62
2023-08-12T08:41:18.447Z,32.60
2023-08-12T08:43:48.826Z,32.58
2023-08-12T08:46:17.276Z,32.55
2023-08-12T08:48:45.009Z,32.35
2023-08-12T08:51:12.770Z,32.39
2023-08-12T08:53:40.499Z,32.30
2023-08-12T08:56:15.843Z,32.21
2023-08-12T08:58:42.927Z,32.01
2023-08-12T09:01:10.327Z,32.20
2023-08-12T09:03:39.169Z,32.54
2023-08-12T09:06:06.677Z,32.69
2023-08-12T09:08:35.084Z,32.78
2023-08-12T09:11:03.436Z,33.13
2023-08-12T09:13:31.131Z,33.64
2023-08-12T09:15:58.559Z,33.86
2023-08-12T09:18:27.745Z,34.22
2023-08-12T09:20:55.528Z,34.94
2023-08-12T09:23:22.344Z,35.77
2023-08-12T09:25:49.692Z,35.72
2023-08-12T09:28:16.816Z,35.69
2023-08-12T09:30:51.287Z,35.83
2023-08-12T09:33:27.798Z,36.01
2023-08-12T09:35:57.901Z,36.33
2023-08-12T09:38:24.969Z,36.76
2023-08-12T09:40:54.073Z,36.99
2023-08-12T09:43:25.745Z,37.00
2023-08-12T09:45:57.980Z,37.17
2023-08-12T09:48:25.367Z,37.23
2023-08-12T09:50:53.860Z,37.26
2023-08-12T09:53:23.205Z,37.31
2023-08-12T09:55:53.573Z,37.47
2023-08-12T09:58:25.289Z,37.35
2023-08-12T10:00:52.966Z,37.12
2023-08-12T10:03:21.525Z,36.51
2023-08-12T10:05:48.958Z,36.62
2023-08-12T10:08:16.312Z,36.45
2023-08-12T10:10:45.870Z,35.81
2023-08-12T10:13:13.416Z,35.26
2023-08-12T10:15:41.254Z,34.50
2023-08-12T10:18:11.828Z,34.40
2023-08-12T10:20:40.568Z,35.09
2023-08-12T10:23:09.206Z,35.68
2023-08-12T10:25:39.257Z,35.99
2023-08-12T10:28:06.479Z,35.88
2023-08-12T10:30:35.961Z,35.79
2023-08-12T10:33:04.434Z,35.73
2023-08-12T10:35:45.440Z,35.37
2023-08-12T10:38:14.765Z,35.05
2023-08-12T10:40:42.301Z,34.56
2023-08-12T10:43:09.451Z,34.50
2023-08-12T10:45:51.215Z,34.33
2023-08-12T10:48:26.208Z,34.09
2023-08-12T10:50:56.086Z,34.15
2023-08-12T10:53:32.920Z,34.25
2023-08-12T10:56:04.650Z,34.41
2023-08-12T10:58:46.357Z,34.55
2023-08-12T11:01:20.021Z,34.66
2023-08-12T11:03:49.209Z,34.41
2023-08-12T11:06:16.164Z,34.05
2023-08-12T11:08:53.588Z,33.60
2023-08-12T11:11:22.323Z,33.29
2023-08-12T11:14:00.145Z,32.88
2023-08-12T11:16:37.641Z,32.52
2023-08-12T11:19:05.738Z,32.20
2023-08-12T11:21:33.214Z,31.85
2023-08-12T11:24:01.072Z,31.67
2023-08-12T11:26:27.852Z,31.71
2023-08-12T11:28:54.811Z,31.88
2023-08-12T11:31:23.561Z,32.16
2023-08-12T11:33:50.626Z,32.38
2023-08-12T11:36:17.955Z,32.51
2023-08-12T11:38:45.159Z,32.62
2023-08-12T11:41:13.066Z,32.94
2023-08-12T11:43:39.878Z,33.19
2023-08-12T11:46:06.769Z,33.39
2023-08-12T11:48:33.929Z,33.48
2023-08-12T11:51:01.160Z,33.38
2023-08-12T11:53:28.469Z,33.24
2023-08-12T11:55:55.499Z,33.05
2023-08-12T11:58:24.389Z,33.04
2023-08-12T12:00:52.742Z,32.92
2023-08-12T12:03:19.715Z,32.94
2023-08-12T12:05:47.844Z,33.00
2023-08-12T12:08:15.310Z,33.16
2023-08-12T12:10:42.450Z,33.39
2023-08-12T12:13:12.118Z,33.57
2023-08-12T12:15:45.407Z,33.67
2023-08-12T12:18:13.916Z,33.60
2023-08-12T12:20:56.870Z,33.41
2023-08-12T12:23:29.503Z,33.16
2023-08-12T12:26:03.940Z,32.90
2023-08-12T12:28:31.610Z,32.69
2023-08-12T12:30:58.460Z,32.43
2023-08-12T12:33:25.425Z,32.01
2023-08-12T12:35:58.866Z,31.81
2023-08-12T12:38:28.057Z,31.69
2023-08-12T12:40:55.008Z,31.60
2023-08-12T12:43:21.894Z,31.56
2023-08-12T12:45:48.711Z,31.46
2023-08-12T12:48:15.665Z,31.54
2023-08-12T12:50:42.505Z,31.77
2023-08-12T12:53:09.315Z,31.99
2023-08-12T12:55:36.292Z,32.70
2023-08-12T12:58:03.220Z,33.20
2023-08-12T13:00:31.016Z,33.80
2023-08-12T13:02:57.892Z,34.73
2023-08-12T13:05:24.846Z,35.51
2023-08-12T13:07:51.674Z,36.35
2023-08-12T13:10:18.618Z,36.83
2023-08-12T13:12:45.471Z,37.30
2023-08-12T13:15:13.022Z,37.45
2023-08-12T13:17:39.953Z,37.48
2023-08-12T13:20:07.530Z,37.60
2023-08-12T13:22:34.443Z,37.66
2023-08-12T13:25:01.388Z,37.72
2023-08-12T13:27:29.000Z,37.76
2023-08-12T13:29:55.872Z,37.48
2023-08-12T13:32:23.309Z,37.06
2023-08-12T13:34:50.242Z,36.88
2023-08-12T13:37:17.188Z,37.18
2023-08-12T13:39:44.153Z,37.33
2023-08-12T13:42:11.345Z,37.48
2023-08-12T13:44:38.589Z,37.34
2023-08-12T13:47:05.559Z,37.37
2023-08-12T13:49:33.023Z,37.33
2023-08-12T13:52:02.730Z,37.23
2023-08-12T13:54:29.688Z,36.98
2023-08-12T13:56:56.520Z,36.81
2023-08-12T13:59:23.470Z,36.63
2023-08-12T14:01:50.347Z,36.44
2023-08-12T14:04:17.270Z,36.28
2023-08-12T14:06:44.900Z,36.14
2023-08-12T14:09:14.935Z,36.04
2023-08-12T14:11:41.941Z,35.78
2023-08-12T14:14:08.981Z,35.33
2023-08-12T14:16:36.968Z,34.93
2023-08-12T14:19:04.226Z,34.71
2023-08-12T14:21:31.210Z,34.58
2023-08-12T14:23:58.241Z,34.44
2023-08-12T14:26:25.348Z,34.15
2023-08-12T14:28:52.227Z,33.89
2023-08-12T14:31:20.204Z,33.51
2023-08-12T14:33:47.026Z,33.49
2023-08-12T14:36:13.901Z,33.43
2023-08-12T14:38:40.770Z,33.33
2023-08-12T14:41:07.776Z,33.10
2023-08-12T14:43:34.625Z,32.97
2023-08-12T14:46:01.616Z,32.72
2023-08-12T14:48:28.495Z,32.63
2023-08-12T14:50:56.843Z,32.30
2023-08-12T14:53:23.809Z,31.74
2023-08-12T14:55:50.586Z,31.43
2023-08-12T14:58:17.570Z,31.11
2023-08-12T15:00:44.513Z,30.92
2023-08-12T15:03:12.855Z,30.80
2023-08-12T15:05:39.797Z,30.68
2023-08-12T15:08:06.915Z,30.53
2023-08-12T15:10:34.182Z,30.44
2023-08-12T15:13:01.018Z,30.27
2023-08-12T15:15:27.825Z,30.06
2023-08-12T15:17:54.754Z,29.83
2023-08-12T15:20:21.735Z,29.59
2023-08-12T15:22:48.703Z,29.36
2023-08-12T15:25:15.650Z,29.09
2023-08-12T15:27:42.497Z,28.86
2023-08-12T15:30:09.701Z,28.84
2023-08-12T15:32:39.373Z,28.72
2023-08-12T15:35:07.845Z,28.51
2023-08-12T15:37:35.199Z,28.38
2023-08-12T15:40:02.224Z,28.37
2023-08-12T15:42:29.087Z,28.21
2023-08-12T15:44:55.936Z,28.10
2023-08-12T15:47:22.842Z,27.97
2023-08-12T15:49:49.652Z,27.73
2023-08-12T15:52:16.563Z,27.64
2023-08-12T15:54:43.376Z,27.64
2023-08-12T15:57:11.571Z,27.40
2023-08-12T15:59:38.929Z,27.32
2023-08-12T16:02:05.822Z,27.18
2023-08-12T16:04:33.208Z,27.03
2023-08-12T16:07:00.082Z,27.11
2023-08-12T16:09:26.978Z,27.04
2023-08-12T16:11:55.495Z,26.93
2023-08-12T16:14:22.459Z,26.76
2023-08-12T16:16:49.324Z,26.77
2023-08-12T16:19:16.155Z,26.73
2023-08-12T16:21:43.026Z,26.57
2023-08-12T16:24:09.882Z,26.48
2023-08-12T16:26:36.689Z,26.20
2023-08-12T16:29:03.610Z,26.15
2023-08-12T16:31:32.089Z,26.05
2023-08-12T16:33:59.811Z,25.95
2023-08-12T16:36:26.656Z,26.04
2023-08-12T16:38:53.566Z,25.83
2023-08-12T16:41:20.490Z,25.65
2023-08-12T16:43:47.445Z,25.55
2023-08-12T16:46:14.261Z,25.38
2023-08-12T16:48:41.061Z,25.27
2023-08-12T16:51:08.005Z,25.04
2023-08-12T16:53:34.897Z,24.87
2023-08-12T16:56:01.760Z,24.74
2023-08-12T16:58:28.741Z,24.63
2023-08-12T17:00:55.765Z,24.52
2023-08-12T17:03:22.624Z,24.40
2023-08-12T17:05:49.585Z,24.16
2023-08-12T17:08:16.499Z,23.99
2023-08-12T17:10:43.337Z,23.91
2023-08-12T17:13:10.279Z,23.75
2023-08-12T17:15:37.160Z,23.56
2023-08-12T17:18:04.613Z,23.34
2023-08-12T17:20:31.530Z,23.13
2023-08-12T17:22:58.464Z,22.84
2023-08-12T17:25:25.462Z,22.73
2023-08-12T17:27:52.590Z,22.67
2023-08-12T17:30:19.926Z,22.28
2023-08-12T17:32:46.994Z,22.12
2023-08-12T17:35:14.158Z,22.01
2023-08-12T17:37:41.788Z,21.81
2023-08-12T17:40:11.804Z,21.71
2023-08-12T17:42:38.916Z,21.54
2023-08-12T17:45:07.191Z,21.38
2023-08-12T17:47:34.733Z,21.16
2023-08-12T17:50:01.739Z,20.98
2023-08-12T17:52:28.528Z,20.87
2023-08-12T17:54:55.405Z,20.69
2023-08-12T17:57:22.430Z,20.64
2023-08-12T17:59:49.442Z,20.53
2023-08-12T18:02:16.555Z,20.44
2023-08-12T18:04:43.828Z,20.39
2023-08-12T18:07:10.939Z,20.26
2023-08-12T18:09:37.793Z,20.13
2023-08-12T18:12:04.820Z,20.10
2023-08-12T18:14:31.728Z,20.09
2023-08-12T18:16:58.740Z,20.07
2023-08-12T18:19:25.867Z,19.98
2023-08-12T18:21:53.024Z,19.99
2023-08-12T18:24:19.973Z,20.01
2023-08-12T18:26:47.027Z,20.02
2023-08-12T18:29:13.949Z,19.97
2023-08-12T18:31:40.937Z,19.89
2023-08-12T18:34:07.836Z,19.80
2023-08-12T18:36:34.894Z,19.69
2023-08-12T18:39:01.852Z,19.65
2023-08-12T18:41:28.929Z,19.57
2023-08-12T18:43:55.774Z,19.47
2023-08-12T18:46:22.687Z,19.39
2023-08-12T18:48:49.748Z,19.32
2023-08-12T18:51:17.154Z,19.26
2023-08-12T18:53:44.261Z,19.20
2023-08-12T18:56:11.147Z,19.24
2023-08-12T18:58:38.071Z,19.19
2023-08-12T19:01:05.018Z,19.18
2023-08-12T19:03:32.092Z,19.02
2023-08-12T19:06:00.433Z,18.91
2023-08-12T19:08:27.981Z,18.86
2023-08-12T19:10:59.139Z,18.84
2023-08-12T19:13:26.667Z,18.96
2023-08-12T19:15:55.187Z,18.86
2023-08-12T19:18:26.973Z,18.83
2023-08-12T19:20:53.950Z,18.80
2023-08-12T19:23:21.347Z,18.89
2023-08-12T19:25:48.359Z,18.66
2023-08-12T19:28:15.340Z,18.60
2023-08-12T19:30:42.342Z,18.64
2023-08-12T19:33:09.265Z,18.59
2023-08-12T19:35:36.437Z,18.52
2023-08-12T19:38:03.369Z,18.37
2023-08-12T19:40:30.612Z,18.43
2023-08-12T19:42:57.561Z,18.44
2023-08-12T19:45:24.697Z,18.38
2023-08-12T19:47:51.568Z,18.35
2023-08-12T19:50:18.509Z,18.37
2023-08-12T19:52:45.444Z,18.30
2023-08-12T19:55:12.486Z,18.25
2023-08-12T19:57:40.174Z,18.26
2023-08-12T20:00:10.840Z,18.19
2023-08-12T20:02:42.900Z,18.10
2023-08-12T20:05:15.381Z,18.05
2023-08-12T20:07:43.472Z,18.07
2023-08-12T20:10:11.407Z,18.07
2023-08-12T20:12:38.470Z,17.82
2023-08-12T20:15:09.384Z,17.87
2023-08-12T20:17:36.627Z,17.93
2023-08-12T20:20:06.065Z,18.05
2023-08-12T20:22:32.866Z,17.96
2023-08-12T20:24:59.838Z,18.01
2023-08-12T20:27:26.922Z,17.96
2023-08-12T20:29:53.837Z,17.90
2023-08-12T20:32:20.785Z,17.74
2023-08-12T20:34:47.563Z,17.64
2023-08-12T20:37:14.604Z,17.60
2023-08-12T20:39:41.622Z,17.50
2023-08-12T20:42:08.747Z,17.45
2023-08-12T20:44:35.628Z,17.44
2023-08-12T20:47:02.383Z,17.31
2023-08-12T20:49:29.469Z,17.22
2023-08-12T20:51:56.318Z,17.39
2023-08-12T20:54:23.890Z,17.30
2023-08-12T20:56:52.083Z,17.26
2023-08-12T20:59:18.850Z,17.11
2023-08-12T21:01:45.970Z,16.93
2023-08-12T21:04:12.830Z,17.07
2023-08-12T21:06:39.789Z,16.96
2023-08-12T21:09:07.092Z,16.93
2023-08-12T21:11:34.121Z,17.02
2023-08-12T21:14:00.925Z,17.07
2023-08-12T21:16:27.797Z,16.91
2023-08-12T21:18:54.867Z,16.90
2023-08-12T21:21:21.794Z,16.95
2023-08-12T21:23:48.659Z,16.74
2023-08-12T21:26:15.739Z,16.73
2023-08-12T21:28:42.675Z,16.83
2023-08-12T21:31:11.182Z,16.79
2023-08-12T21:33:38.020Z,16.71
2023-08-12T21:36:06.437Z,16.58
2023-08-12T21:38:33.249Z,16.59
2023-08-12T21:41:00.057Z,16.54
2023-08-12T21:43:26.892Z,16.43
2023-08-12T21:45:53.830Z,16.39
2023-08-12T21:48:20.674Z,16.38
2023-08-12T21:50:47.532Z,16.33
2023-08-12T21:53:14.343Z,16.29
2023-08-12T21:55:41.156Z,16.16
2023-08-12T21:58:07.957Z,15.96
2023-08-12T22:00:34.939Z,16.03
2023-08-12T22:03:01.934Z,15.59
2023-08-12T22:05:28.889Z,15.43
2023-08-12T22:07:55.737Z,15.29
2023-08-12T22:10:22.621Z,15.13
2023-08-12T22:12:49.597Z,14.98
2023-08-12T22:15:16.709Z,14.90
2023-08-12T22:17:45.499Z,14.83
2023-08-12T22:20:14.952Z,14.85
2023-08-12T22:22:42.369Z,14.70
2023-08-12T22:25:09.507Z,14.61
2023-08-12T22:27:36.307Z,14.48
2023-08-12T22:30:06.146Z,14.33
2023-08-12T22:32:33.306Z,14.18
2023-08-12T22:35:00.158Z,14.13
2023-08-12T22:37:27.132Z,14.00
2023-08-12T22:39:53.999Z,13.90
2023-08-12T22:42:20.840Z,13.98
2023-08-12T22:44:47.714Z,13.75
2023-08-12T22:47:14.576Z,13.76
2023-08-12T22:49:41.357Z,13.68
2023-08-12T22:52:08.322Z,13.70
2023-08-12T22:54:35.231Z,13.48
2023-08-12T22:57:02.126Z,13.46
2023-08-12T22:59:29.037Z,13.52
2023-08-12T23:01:55.954Z,13.65
2023-08-12T23:04:22.952Z,13.54
2023-08-12T23:06:49.891Z,13.42
2023-08-12T23:09:16.961Z,13.46
2023-08-12T23:11:43.992Z,13.40
2023-08-12T23:14:10.901Z,13.40
2023-08-12T23:16:38.121Z,13.33
2023-08-12T23:19:05.103Z,13.29
2023-08-12T23:21:32.014Z,13.28
2023-08-12T23:23:58.853Z,13.24
2023-08-12T23:26:25.696Z,13.22
2023-08-12T23:28:52.640Z,13.22
2023-08-12T23:31:19.573Z,13.22
2023-08-12T23:33:46.565Z,13.22
2023-08-12T23:36:13.516Z,13.23
2023-08-12T23:38:40.396Z,13.23
2023-08-12T23:41:07.310Z,13.23
2023-08-12T23:43:34.198Z,13.17
2023-08-12T23:46:01.596Z,13.13
2023-08-12T23:48:28.490Z,13.17
2023-08-12T23:50:55.366Z,13.22
2023-08-12T23:53:22.250Z,13.28
2023-08-12T23:55:49.135Z,13.29
2023-08-12T23:58:16.599Z,13.17
